Hauptseite
METAR-TAF:

METAR-TAF

Flughäfen :

Uherské Hradiště, Tschechien

Breite: 49-01-46N, Länge: 017-26-23E, Höhe: 177 m

Beobachtung

Neuester Wetterbericht von vor 1 Stunde und 35 Minuten, um 17:00 UTC
Wind 8 kt aus Nord/Nordost
Temperatur 2°C
Luftfeuchtigkeit 93%
Luftdruck 1013 hPa
Sichtweite: 4300 m
Geschlossene Wolkendecke in der Höhe von 2000 ft
feuchter Dunst

METAR: LKKU 201700Z 03008KT 4300 BR OVC020 02/01 Q1013

Zeit: 19:35 (18:35 UTC)


TAF: fehlend

Wetterbeobachtungen und Prognosen von mehr als 4000 Flughäfen (METAR und TAF Bericht).

Die verfügbaren Stationen werden durch gelbe und rote Markierungen auf der Karte dargestellt.

Führen Sie die Maus auf sie, um den Namen der Station zu sehen.

Darauf klicken, um die Beobachtung von Wetterbeobachtungen und Prognosen zu sehen.

Um die Karte zu ändern : klicken Sie auf den grünen Tasten mit einem schwarzen Kreuz Zum Vergrößern, auf den grünen Button mit einem Gedankenstrich zu verkleinern, oder auf die grünen Pfeile für benachbarte Karten.


METAR-TAF: